Wednesday, August 24, 2016, 10:38 PM EDT

KSHD, Staunton / Shenandoah

Location: Weyers Cave, VA, United States Lat: 38.267
Local Time: 10:38 PM EDT ( 2:38 GMT) Lon: -78.9
Time Zone: US/Eastern Elev: 1200 ft

Show me the last for .
Show Decoded

2016-08-24 22:15 METAR KSHD 250215Z AUTO 21004KT 10SM CLR 23/19 A3023 RMK AO2 T02270191 =
2016-08-24 21:55 METAR KSHD 250155Z AUTO 18005KT 10SM CLR 23/19 A3022 RMK AO2 T02280192 =
2016-08-24 21:35 METAR KSHD 250135Z AUTO 19005KT 10SM CLR 23/19 A3023 RMK AO2 T02300191 =
2016-08-24 21:15 METAR KSHD 250115Z AUTO 18005KT 10SM CLR 23/19 A3022 RMK AO2 T02300192 =
2016-08-24 20:55 METAR KSHD 250055Z AUTO 17004KT 10SM CLR 23/19 A3022 RMK AO2 T02340192 =
2016-08-24 20:35 METAR KSHD 250035Z AUTO 17006KT 10SM CLR 24/19 A3022 RMK AO2 T02360193 =
2016-08-24 20:15 METAR KSHD 250015Z AUTO 17005KT 10SM SCT048 SCT050 24/19 A3022 RMK AO2 T02400193
                 =
2016-08-24 19:55 METAR KSHD 242355Z AUTO 17005KT 10SM OVC050 25/19 A3022 RMK AO2 T02450193 10294
                 20245 =
2016-08-24 19:35 METAR KSHD 242335Z AUTO 16007KT 10SM BKN050 25/19 A3022 RMK AO2 T02490192 =
2016-08-24 19:15 METAR KSHD 242315Z AUTO 17007KT 10SM CLR 25/19 A3022 RMK AO2 T02520192 =
2016-08-24 18:55 METAR KSHD 242255Z AUTO 17006KT 10SM CLR 26/19 A3021 RMK AO2 T02570194 =
2016-08-24 18:35 METAR KSHD 242235Z AUTO 16009KT 10SM CLR 27/19 A3020 RMK AO2 T02670193 =
2016-08-24 18:15 METAR KSHD 242215Z AUTO 16007KT 10SM CLR 27/19 A3020 RMK AO2 T02710193 =
2016-08-24 17:55 METAR KSHD 242155Z AUTO 17007KT 10SM CLR 28/19 A3021 RMK AO2 T02750191 =
2016-08-24 17:35 METAR KSHD 242135Z AUTO 15009KT 10SM CLR 28/19 A3021 RMK AO2 T02800191 =
2016-08-24 17:15 METAR KSHD 242115Z AUTO 17007KT 10SM CLR 28/18 A3021 RMK AO2 T02820183 =
2016-08-24 16:55 METAR KSHD 242055Z AUTO 17006KT 10SM CLR 28/19 A3022 RMK AO2 T02840185 =
2016-08-24 16:35 METAR KSHD 242035Z AUTO 18007KT 10SM CLR 29/19 A3022 RMK AO2 T02880186 =
2016-08-24 16:15 METAR KSHD 242015Z AUTO 16006KT 10SM CLR 28/18 A3023 RMK AO2 T02840181 =
2016-08-24 15:55 METAR KSHD 241955Z AUTO 19008KT 10SM SCT060 29/18 A3024 RMK AO2 T02900180 =
2016-08-24 15:35 METAR KSHD 241935Z AUTO 18006KT 10SM SCT060 29/18 A3024 RMK AO2 T02850178 =
2016-08-24 15:15 METAR KSHD 241915Z AUTO 15006KT 10SM SCT050 29/17 A3025 RMK AO2 T02860172 =
2016-08-24 14:55 METAR KSHD 241855Z AUTO 18008KT 10SM SCT050 29/18 A3026 RMK AO2 T02860175 =
2016-08-24 14:35 METAR KSHD 241835Z AUTO 17007KT 10SM BKN050 29/17 A3026 RMK AO2 T02850171 =
2016-08-24 14:15 METAR KSHD 241815Z AUTO 19005KT 10SM SCT060 SCT065 29/17 A3027 RMK AO2 T02910167
                 =
2016-08-24 13:55 METAR KSHD 241755Z AUTO 21007KT 10SM SCT049 SCT060 29/17 A3028 RMK AO2 T02870170
                 10287 20158 =
2016-08-24 13:35 METAR KSHD 241735Z AUTO 22008KT 10SM SCT045 28/17 A3028 RMK AO2 T02820169 =
2016-08-24 13:15 METAR KSHD 241715Z AUTO 21007KT 10SM SCT045 28/18 A3029 RMK AO2 T02800175 =
2016-08-24 12:55 METAR KSHD 241655Z AUTO 17007KT 10SM CLR 28/18 A3029 RMK AO2 T02800176 =
2016-08-24 12:35 METAR KSHD 241635Z AUTO 23005KT 10SM CLR 27/17 A3030 RMK AO2 T02740173 =
2016-08-24 12:15 METAR KSHD 241615Z AUTO 20007KT 10SM CLR 27/17 A3031 RMK AO2 T02720172 =
2016-08-24 11:55 METAR KSHD 241555Z AUTO 21005KT 10SM CLR 26/18 A3032 RMK AO2 T02640177 =
2016-08-24 11:35 METAR KSHD 241535Z AUTO 22004KT 10SM CLR 26/18 A3032 RMK AO2 T02590184 =
2016-08-24 11:15 METAR KSHD 241515Z AUTO 16006KT 10SM CLR 25/18 A3032 RMK AO2 T02520184 =
2016-08-24 10:55 METAR KSHD 241455Z AUTO 22005KT 10SM CLR 25/18 A3032 RMK AO2 T02460178 =
2016-08-24 09:55 METAR KSHD 241355Z AUTO 21004KT 10SM CLR 23/18 A3034 RMK AO2 T02250179 =
2016-08-24 09:35 METAR KSHD 241335Z AUTO 17004KT 10SM CLR 21/18 A3035 RMK AO2 T02130175 =
2016-08-24 09:15 METAR KSHD 241315Z AUTO 16003KT 10SM CLR 20/18 A3035 RMK AO2 T02030176 =
2016-08-24 08:55 METAR KSHD 241255Z AUTO 00000KT 10SM CLR 19/17 A3035 RMK AO2 T01910172 =
2016-08-24 08:35 METAR KSHD 241235Z AUTO 00000KT 10SM CLR 18/17 A3036 RMK AO2 T01790167 =
2016-08-24 08:15 METAR KSHD 241215Z AUTO 00000KT 10SM CLR 17/16 A3036 RMK AO2 T01660157 =
2016-08-24 07:55 METAR KSHD 241155Z AUTO 00000KT 10SM CLR 16/15 A3036 RMK AO2 T01570150 10163
                 20136 =
2016-08-24 07:35 METAR KSHD 241135Z AUTO 00000KT 10SM CLR 15/15 A3036 RMK AO2 T01520146 =
2016-08-24 07:15 METAR KSHD 241115Z AUTO 00000KT 4SM BR CLR 14/14 A3035 RMK AO2 T01420140 =
2016-08-24 06:55 METAR KSHD 241055Z AUTO 00000KT 7SM SCT002 14/14 A3035 RMK AO2 T01400138 =
2016-08-24 06:35 METAR KSHD 241035Z AUTO 00000KT 1SM BR BKN002 14/14 A3035 RMK AO2 T01360135 =
2016-08-24 06:15 METAR KSHD 241015Z AUTO 00000KT 5SM BR CLR 14/13 A3034 RMK AO2 T01380134 =
2016-08-24 05:55 METAR KSHD 240955Z AUTO 00000KT 10SM CLR 14/14 A3034 RMK AO2 T01410138 =
2016-08-24 05:35 METAR KSHD 240935Z AUTO 00000KT 7SM SCT002 15/15 A3033 RMK AO2 T01470145 =
2016-08-24 05:15 METAR KSHD 240915Z AUTO 00000KT 2SM BR SCT002 15/14 A3033 RMK AO2 T01460142 =
2016-08-24 04:55 METAR KSHD 240855Z AUTO 00000KT 7SM CLR 15/15 A3033 RMK AO2 T01500146 =
2016-08-24 04:35 METAR KSHD 240835Z AUTO 00000KT 7SM CLR 15/15 A3032 RMK AO2 T01490146 =
2016-08-24 04:15 METAR KSHD 240815Z AUTO 00000KT 7SM CLR 14/14 A3032 RMK AO2 T01420138 =
2016-08-24 03:55 METAR KSHD 240755Z AUTO 00000KT 5SM BR CLR 15/14 A3032 RMK AO2 T01450142 =
2016-08-24 03:35 METAR KSHD 240735Z AUTO 00000KT 10SM CLR 15/14 A3032 RMK AO2 T01450141 =
2016-08-24 03:15 METAR KSHD 240715Z AUTO 00000KT 10SM CLR 16/15 A3032 RMK AO2 T01560149 =
2016-08-24 02:55 METAR KSHD 240655Z AUTO 00000KT 10SM CLR 16/15 A3032 RMK AO2 T01560151 =
2016-08-24 02:35 METAR KSHD 240635Z AUTO 00000KT 10SM CLR 16/15 A3033 RMK AO2 T01550148 =
2016-08-24 02:15 METAR KSHD 240615Z AUTO 00000KT 10SM CLR 16/15 A3033 RMK AO2 T01590152 =
2016-08-24 01:55 METAR KSHD 240555Z AUTO 00000KT 10SM CLR 16/16 A3034 RMK AO2 T01620155 10227
                 20153 402660145 =
2016-08-24 01:35 METAR KSHD 240535Z AUTO 00000KT 10SM CLR 16/15 A3033 RMK AO2 T01560149 =
2016-08-24 01:15 METAR KSHD 240515Z AUTO 00000KT 10SM CLR 16/16 A3034 RMK AO2 T01640158 =
2016-08-24 00:55 METAR KSHD 240455Z AUTO 00000KT 10SM CLR 17/16 A3034 RMK AO2 T01660159 =
2016-08-24 00:35 METAR KSHD 240435Z AUTO 00000KT 10SM CLR 16/15 A3034 RMK AO2 T01600151 =
2016-08-24 00:15 METAR KSHD 240415Z AUTO 00000KT 10SM CLR 17/16 A3034 RMK AO2 T01710160 =
2016-08-23 23:55 METAR KSHD 240355Z AUTO 00000KT 10SM CLR 17/16 A3034 RMK AO2 T01700158 =
2016-08-23 23:35 METAR KSHD 240335Z AUTO 00000KT 10SM CLR 17/16 A3034 RMK AO2 T01710159 =
2016-08-23 23:15 METAR KSHD 240315Z AUTO 00000KT 10SM CLR 18/17 A3034 RMK AO2 T01760165 =
2016-08-23 22:55 METAR KSHD 240255Z AUTO 00000KT 10SM CLR 18/17 A3034 RMK AO2 T01780165 =

Support USWX by starting your Amazon purchase here.